Time;durP1;ratioP1;P1;durP2;ratioP2;P2;SDS_P1;SDS_P2;PMS_P1;PMS_P2;Temp;Humidity;BMP_temperature;BMP_pressure;BME280_temperature;BME280_humidity;BME280_pressure;Samples;Min_cycle;Max_cycle;Signal;HPM_P1;HPM_P2
2021/06/09 04:04:39;;;;;;;8.82;4.40;;;23.00;70.90;;;;;;6213106;22;1303604;-77
2021/06/09 04:07:05;;;;;;;7.13;4.18;;;23.10;71.30;;;;;;6200297;22;19999;-76
2021/06/09 04:10:05;;;;;;;10.70;4.25;;;23.10;70.60;;;;;;5119106;27;20374;-76
2021/06/09 04:15:13;;;;;;;9.70;4.35;;;23.20;71.10;;;;;;4948056;22;20043;-76
2021/06/09 04:17:39;;;;;;;8.20;4.13;;;23.20;70.70;;;;;;4995343;28;20033;-78
2021/06/09 04:20:07;;;;;;;9.10;4.28;;;23.20;70.20;;;;;;5116227;27;20089;-76
2021/06/09 04:22:54;;;;;;;10.25;4.32;;;23.20;70.20;;;;;;5056690;22;20117;-75
2021/06/09 04:25:23;;;;;;;11.82;4.72;;;23.20;70.40;;;;;;5052923;28;20034;-77
2021/06/09 04:27:49;;;;;;;14.82;5.25;;;23.20;70.70;;;;;;5039421;28;20064;-76
2021/06/09 04:30:35;;;;;;;9.05;4.78;;;23.20;70.60;;;;;;5047005;28;20042;-77
2021/06/09 04:33:02;;;;;;;9.52;5.55;;;23.20;70.60;;;;;;5047862;28;20138;-76
2021/06/09 04:35:35;;;;;;;11.93;4.32;;;23.20;70.70;;;;;;5032841;28;20033;-76
2021/06/09 04:38:01;;;;;;;11.05;4.70;;;23.20;70.70;;;;;;5043398;28;20021;-76
2021/06/09 04:40:27;;;;;;;9.90;4.07;;;23.20;70.80;;;;;;5027836;28;20120;-77
2021/06/09 04:42:54;;;;;;;7.80;4.38;;;23.30;70.80;;;;;;5024925;28;20378;-76
2021/06/09 04:45:22;;;;;;;10.02;4.20;;;23.20;70.70;;;;;;5044537;28;20032;-76
2021/06/09 04:47:48;;;;;;;18.73;5.55;;;23.20;70.80;;;;;;5043311;28;20108;-76
2021/06/09 04:50:18;;;;;;;10.10;4.30;;;23.20;70.80;;;;;;5056975;28;20059;-76
2021/06/09 04:52:43;;;;;;;7.85;4.88;;;23.20;70.90;;;;;;5057331;28;20021;-76
2021/06/09 04:55:10;;;;;;;9.55;5.38;;;23.20;71.20;;;;;;5061334;28;20368;-76
2021/06/09 04:57:36;;;;;;;8.73;3.95;;;23.20;71.40;;;;;;5057618;28;20021;-76
2021/06/09 05:00:15;;;;;;;9.98;5.18;;;23.10;71.30;;;;;;5053628;28;20110;-75
2021/06/09 05:02:44;;;;;;;12.57;4.63;;;23.10;71.30;;;;;;5064373;28;20029;-82
2021/06/09 05:05:25;;;;;;;10.05;4.47;;;23.10;71.40;;;;;;5057299;28;20423;-76
2021/06/09 05:07:50;;;;;;;10.90;4.97;;;23.10;71.40;;;;;;5067986;28;20029;-77
2021/06/09 05:10:17;;;;;;;9.88;4.20;;;23.10;71.40;;;;;;5069191;28;20025;-76
2021/06/09 05:12:48;;;;;;;9.57;4.00;;;23.10;71.40;;;;;;5047262;28;20025;-76
2021/06/09 05:15:14;;;;;;;7.88;4.45;;;23.10;71.40;;;;;;5055192;28;20022;-77
2021/06/09 05:17:43;;;;;;;7.57;4.40;;;23.10;71.40;;;;;;5047619;28;20029;-80
2021/06/09 05:20:09;;;;;;;9.10;4.60;;;23.10;71.40;;;;;;5036609;28;20077;-76
2021/06/09 05:22:53;;;;;;;7.10;4.30;;;23.10;72.00;;;;;;5015911;28;20084;-76
2021/06/09 05:25:18;;;;;;;9.25;3.75;;;23.10;71.40;;;;;;5032277;28;20017;-76
2021/06/09 05:27:44;;;;;;;11.65;4.28;;;23.10;71.50;;;;;;5027065;28;20033;-79
2021/06/09 05:30:11;;;;;;;11.48;4.38;;;23.10;71.50;;;;;;5031495;28;20095;-76
2021/06/09 05:32:37;;;;;;;7.55;4.10;;;23.00;71.40;;;;;;5042832;23;20022;-76
2021/06/09 05:35:04;;;;;;;7.95;4.03;;;23.10;71.50;;;;;;5040108;23;20080;-76
2021/06/09 05:37:29;;;;;;;5.55;3.45;;;23.00;71.40;;;;;;4986800;28;20021;-76
2021/06/09 05:39:58;;;;;;;7.70;3.55;;;23.00;71.50;;;;;;4986712;28;20026;-76
2021/06/09 05:42:24;;;;;;;6.00;4.00;;;23.00;71.50;;;;;;5002926;28;20010;-76
2021/06/09 05:44:53;;;;;;;6.90;3.78;;;23.10;71.50;;;;;;4966981;28;20026;-76
2021/06/09 05:47:19;;;;;;;6.93;4.05;;;23.00;71.50;;;;;;4967595;28;20280;-76
2021/06/09 05:49:44;;;;;;;7.40;3.85;;;23.10;71.50;;;;;;4966815;28;20331;-76
2021/06/09 05:53:07;;;;;;;6.20;3.92;;;23.00;71.10;;;;;;5115050;27;20715;-76
2021/06/09 05:55:33;;;;;;;6.72;3.60;;;23.00;71.50;;;;;;5080859;28;20127;-76
2021/06/09 05:58:03;;;;;;;7.03;3.70;;;23.00;71.50;;;;;;5097877;28;20020;-76
2021/06/09 06:00:29;;;;;;;7.18;3.95;;;23.00;71.50;;;;;;5097990;28;20122;-76
2021/06/09 06:02:55;;;;;;;5.28;3.63;;;23.00;71.50;;;;;;5099032;28;20095;-76
2021/06/09 06:05:21;;;;;;;6.10;3.67;;;23.00;71.50;;;;;;5080576;28;20039;-76
2021/06/09 06:07:47;;;;;;;6.05;3.55;;;23.00;71.50;;;;;;5097614;28;20054;-76
2021/06/09 06:10:13;;;;;;;7.30;4.38;;;23.00;71.50;;;;;;5097278;28;20012;-76
2021/06/09 06:12:38;;;;;;;6.22;3.70;;;23.00;71.50;;;;;;5097341;28;20072;-76
2021/06/09 06:15:05;;;;;;;6.45;3.47;;;23.00;71.50;;;;;;5063695;28;20026;-76
2021/06/09 06:17:31;;;;;;;7.03;3.20;;;23.00;71.50;;;;;;5080606;28;20031;-76
2021/06/09 06:19:56;;;;;;;6.18;3.08;;;23.00;71.50;;;;;;5063537;28;20024;-76
2021/06/09 06:22:22;;;;;;;4.85;3.42;;;23.00;71.50;;;;;;5098961;28;20016;-76
2021/06/09 06:24:50;;;;;;;5.63;3.47;;;23.00;71.50;;;;;;5098685;28;20058;-76
2021/06/09 06:27:16;;;;;;;4.95;3.47;;;23.00;71.50;;;;;;5080876;28;20432;-75
2021/06/09 06:29:44;;;;;;;6.63;3.47;;;23.00;71.50;;;;;;5097336;28;20047;-76
2021/06/09 06:32:10;;;;;;;5.82;3.08;;;23.00;71.50;;;;;;5080778;28;20034;-76
2021/06/09 06:34:39;;;;;;;5.65;3.47;;;23.00;71.40;;;;;;5080331;28;20042;-76
2021/06/09 06:37:05;;;;;;;5.72;3.55;;;23.00;71.40;;;;;;5097260;28;20432;-75
2021/06/09 06:39:30;;;;;;;6.93;3.60;;;23.00;71.40;;;;;;5080226;28;20023;-76
2021/06/09 06:41:56;;;;;;;5.65;3.40;;;23.00;71.40;;;;;;5080212;28;20028;-76
2021/06/09 06:44:22;;;;;;;4.60;3.28;;;23.00;71.40;;;;;;5080152;28;20304;-76
2021/06/09 06:46:48;;;;;;;10.18;3.60;;;23.00;71.40;;;;;;5063078;28;20144;-76
2021/06/09 06:49:16;;;;;;;6.05;3.20;;;23.00;71.40;;;;;;5080033;28;20394;-76
2021/06/09 06:51:41;;;;;;;4.80;3.22;;;23.00;71.40;;;;;;5079858;28;20113;-76
2021/06/09 06:54:07;;;;;;;4.97;3.20;;;23.00;71.40;;;;;;5097995;28;20016;-76
2021/06/09 06:56:33;;;;;;;4.90;3.30;;;23.00;71.40;;;;;;5079874;28;20095;-76
2021/06/09 06:58:58;;;;;;;5.65;3.65;;;23.00;71.40;;;;;;5096664;28;20022;-76
2021/06/09 07:01:36;;;;;;;4.22;2.88;;;23.00;71.40;;;;;;5096531;28;20465;-76
2021/06/09 07:04:02;;;;;;;6.68;3.63;;;23.00;71.40;;;;;;5086812;28;20459;-76
2021/06/09 07:06:35;;;;;;;5.03;3.45;;;23.00;71.40;;;;;;5063540;28;20463;-80
2021/06/09 07:09:01;;;;;;;4.28;2.80;;;23.00;71.40;;;;;;5073632;28;20072;-80
2021/06/09 07:11:26;;;;;;;7.22;3.20;;;23.00;71.40;;;;;;5067500;28;20451;-76
2021/06/09 07:13:52;;;;;;;4.30;2.95;;;23.00;71.40;;;;;;5067232;28;20486;-76
2021/06/09 07:16:18;;;;;;;5.80;3.10;;;23.00;71.30;;;;;;5067912;28;20028;-76
2021/06/09 07:21:17;;;;;;;5.60;3.55;;;23.00;70.80;;;;;;5125333;27;20405;-75
2021/06/09 07:23:43;;;;;;;4.95;3.35;;;23.00;71.30;;;;;;5103342;28;20034;-76
2021/06/09 07:26:09;;;;;;;5.25;3.45;;;23.00;71.20;;;;;;5094920;28;20014;-77
2021/06/09 07:28:35;;;;;;;5.05;3.45;;;23.00;71.20;;;;;;5069173;28;20111;-76
2021/06/09 07:31:00;;;;;;;5.40;3.47;;;23.00;71.20;;;;;;5097300;28;20059;-77
2021/06/09 07:33:26;;;;;;;5.03;3.08;;;23.00;71.20;;;;;;5087491;28;20032;-76
2021/06/09 07:35:53;;;;;;;4.50;3.40;;;23.00;71.20;;;;;;5101802;28;20091;-75
2021/06/09 07:38:38;;;;;;;4.85;3.15;;;23.00;71.20;;;;;;5084578;28;20020;-76
2021/06/09 07:41:03;;;;;;;5.68;3.17;;;23.00;71.10;;;;;;5110450;28;20498;-76
2021/06/09 07:43:37;;;;;;;4.45;3.20;;;23.00;71.10;;;;;;5087516;28;20108;-76
2021/06/09 07:46:02;;;;;;;4.97;2.85;;;23.00;71.10;;;;;;5113761;28;20116;-76
2021/06/09 07:48:28;;;;;;;5.93;2.75;;;23.00;71.10;;;;;;5101860;28;20060;-76
2021/06/09 07:51:06;;;;;;;4.90;3.13;;;23.00;71.10;;;;;;5094308;28;20689;-80
2021/06/09 07:53:31;;;;;;;5.05;2.90;;;23.00;71.10;;;;;;5101533;28;20032;-76
2021/06/09 07:55:57;;;;;;;5.45;2.92;;;23.00;71.60;;;;;;5068541;22;20151;-76
2021/06/09 07:58:23;;;;;;;4.63;2.92;;;23.00;71.00;;;;;;5008188;28;20029;-76
2021/06/09 08:00:51;;;;;;;4.05;2.90;;;23.00;71.10;;;;;;5008414;28;20043;-76
2021/06/09 08:03:17;;;;;;;5.95;3.10;;;23.00;71.00;;;;;;5057159;22;20453;-76
2021/06/09 08:05:43;;;;;;;4.60;3.10;;;23.00;71.00;;;;;;5077192;28;20029;-76
2021/06/09 08:08:12;;;;;;;4.88;3.28;;;23.00;71.10;;;;;;5064313;28;20027;-76
2021/06/09 08:10:37;;;;;;;4.75;2.95;;;23.00;71.10;;;;;;5090919;22;20060;-76
2021/06/09 08:13:03;;;;;;;5.35;3.35;;;23.00;71.10;;;;;;5082695;28;20473;-77
2021/06/09 08:15:29;;;;;;;4.95;3.28;;;23.00;71.00;;;;;;5084099;28;20035;-75
2021/06/09 08:17:55;;;;;;;5.25;3.65;;;23.00;71.10;;;;;;5082239;28;20025;-76
2021/06/09 08:20:21;;;;;;;4.70;3.10;;;23.00;71.00;;;;;;5080506;28;20032;-76
2021/06/09 08:22:47;;;;;;;4.28;3.00;;;23.00;71.10;;;;;;5081993;28;20022;-77
2021/06/09 08:25:14;;;;;;;4.07;2.78;;;23.00;71.00;;;;;;5064797;28;20024;-76
2021/06/09 08:27:40;;;;;;;4.78;3.00;;;23.00;71.10;;;;;;5093451;28;20024;-76
2021/06/09 08:30:07;;;;;;;4.88;3.25;;;23.00;71.00;;;;;;5065455;28;20029;-76
2021/06/09 08:32:33;;;;;;;4.70;3.15;;;23.00;71.10;;;;;;5073947;28;20674;-76
2021/06/09 08:34:59;;;;;;;5.22;3.33;;;23.00;71.00;;;;;;5069593;28;20115;-76
2021/06/09 08:37:27;;;;;;;4.82;3.38;;;23.00;71.00;;;;;;5069576;28;20025;-77
2021/06/09 08:39:53;;;;;;;4.90;3.05;;;23.00;71.00;;;;;;5066050;28;20024;-76
2021/06/09 08:42:18;;;;;;;4.03;2.85;;;23.00;71.00;;;;;;5067552;28;20048;-75
2021/06/09 08:44:47;;;;;;;4.82;2.40;;;23.00;71.00;;;;;;5067802;28;20117;-76
2021/06/09 08:47:13;;;;;;;4.60;2.92;;;23.00;71.00;;;;;;5067633;28;20553;-76
2021/06/09 08:49:38;;;;;;;4.43;3.05;;;23.00;71.00;;;;;;5067384;28;20142;-84
2021/06/09 08:52:04;;;;;;;4.75;2.90;;;23.00;71.00;;;;;;5053281;28;20062;-76
2021/06/09 08:54:30;;;;;;;4.93;3.05;;;23.00;71.00;;;;;;5066118;28;20021;-76
2021/06/09 08:56:55;;;;;;;4.78;3.08;;;23.00;71.10;;;;;;5066351;28;20103;-76
2021/06/09 08:59:22;;;;;;;3.95;2.70;;;23.10;71.10;;;;;;5069755;28;20046;-77
2021/06/09 09:01:48;;;;;;;4.00;2.50;;;23.00;71.10;;;;;;5070067;28;20001;-83
2021/06/09 09:04:14;;;;;;;3.90;2.58;;;23.00;71.00;;;;;;5067806;28;20530;-76
2021/06/09 09:06:39;;;;;;;4.85;2.95;;;23.00;71.00;;;;;;5078176;28;20032;-77
2021/06/09 09:09:13;;;;;;;4.20;2.78;;;23.00;70.60;;;;;;5123228;27;20383;-76
2021/06/09 09:11:40;;;;;;;3.90;2.72;;;23.00;71.00;;;;;;5102690;28;20727;-82
2021/06/09 09:14:06;;;;;;;4.38;2.50;;;23.10;71.10;;;;;;5100302;28;20008;-76
2021/06/09 09:16:31;;;;;;;4.75;3.03;;;23.00;71.00;;;;;;5083653;28;20035;-76
2021/06/09 09:19:05;;;;;;;4.07;3.10;;;23.10;71.10;;;;;;5084123;28;20027;-83
2021/06/09 09:23:34;;;;;;;4.40;2.70;;;23.00;70.50;;;;;;5123232;27;20387;-76
2021/06/09 09:26:00;;;;;;;3.80;2.60;;;23.10;71.10;;;;;;5102215;28;20028;-84
2021/06/09 09:28:30;;;;;;;4.30;2.83;;;23.00;71.00;;;;;;5066844;28;20515;-75
2021/06/09 09:31:25;;;;;;;4.40;2.88;;;23.10;71.00;;;;;;5101763;28;20047;-81
2021/06/09 09:33:51;;;;;;;4.45;3.03;;;23.10;71.00;;;;;;5095722;28;20379;-77
2021/06/09 09:36:37;;;;;;;3.90;2.90;;;23.10;71.00;;;;;;5080815;28;20026;-76
2021/06/09 09:39:02;;;;;;;4.03;2.85;;;23.00;71.00;;;;;;5097038;28;20400;-76
2021/06/09 09:43:20;;;;;;;3.90;2.97;;;23.00;70.60;;;;;;5114923;27;20405;-76
2021/06/09 09:45:46;;;;;;;4.15;2.88;;;23.00;71.00;;;;;;5097965;28;20631;-76
2021/06/09 09:48:14;;;;;;;4.63;2.90;;;23.10;71.10;;;;;;5097915;28;20012;-76
2021/06/09 09:50:44;;;;;;;4.10;2.78;;;23.10;71.10;;;;;;5099232;28;20424;-76
2021/06/09 09:53:18;;;;;;;3.90;2.60;;;23.10;71.10;;;;;;5099019;28;20034;-76
2021/06/09 09:55:53;;;;;;;3.95;2.60;;;23.10;71.10;;;;;;5097830;28;20028;-76
2021/06/09 09:58:19;;;;;;;5.25;2.88;;;23.10;71.00;;;;;;5097681;28;20024;-76
2021/06/09 10:00:44;;;;;;;4.95;2.85;;;23.10;71.10;;;;;;5097569;28;20027;-75
2021/06/09 10:03:18;;;;;;;4.20;2.72;;;23.00;71.00;;;;;;5080590;28;20219;-76
2021/06/09 10:05:44;;;;;;;4.05;2.75;;;23.10;71.10;;;;;;5080770;28;20414;-76
2021/06/09 10:08:10;;;;;;;4.20;2.70;;;23.10;71.10;;;;;;5097418;28;20414;-76
2021/06/09 10:10:36;;;;;;;3.95;2.67;;;23.10;71.00;;;;;;5098653;28;20034;-75
2021/06/09 10:13:10;;;;;;;3.85;2.78;;;23.10;71.10;;;;;;5063398;28;20024;-76
2021/06/09 10:15:38;;;;;;;3.83;2.83;;;23.10;71.10;;;;;;5080645;28;20024;-76
2021/06/09 10:18:20;;;;;;;3.90;2.63;;;23.10;71.10;;;;;;5097310;28;20043;-76
2021/06/09 10:20:48;;;;;;;4.38;2.70;;;23.10;71.00;;;;;;5080444;28;20161;-76
2021/06/09 10:23:37;;;;;;;4.13;2.65;;;23.10;71.10;;;;;;5097277;28;20023;-76
2021/06/09 10:26:10;;;;;;;4.75;2.45;;;23.10;71.10;;;;;;5080883;28;20054;-76
2021/06/09 10:28:59;;;;;;;4.60;2.80;;;23.00;71.00;;;;;;5097208;28;20547;-76
2021/06/09 10:31:28;;;;;;;4.20;3.00;;;23.00;71.00;;;;;;5080190;28;20055;-75
2021/06/09 10:33:54;;;;;;;4.60;3.47;;;23.10;71.00;;;;;;5098278;28;20019;-76
2021/06/09 10:36:20;;;;;;;4.00;2.78;;;23.10;71.00;;;;;;5097099;28;20065;-76
2021/06/09 10:38:46;;;;;;;3.88;2.58;;;23.10;71.00;;;;;;5098402;28;20046;-76
2021/06/09 10:41:12;;;;;;;5.18;2.97;;;23.10;71.00;;;;;;5096679;28;20244;-76
2021/06/09 10:43:38;;;;;;;4.20;2.90;;;23.10;71.00;;;;;;5079811;28;20103;-76
2021/06/09 10:46:04;;;;;;;4.28;3.13;;;23.10;71.00;;;;;;5079752;28;20298;-76
2021/06/09 10:48:29;;;;;;;4.18;2.72;;;23.10;71.00;;;;;;5079793;28;20034;-76
2021/06/09 10:50:55;;;;;;;4.15;2.80;;;23.10;71.00;;;;;;5096593;28;20024;-76
2021/06/09 10:53:20;;;;;;;3.92;2.70;;;23.10;71.00;;;;;;5073757;28;20055;-76
2021/06/09 10:55:46;;;;;;;3.90;2.65;;;23.10;70.90;;;;;;5066109;28;20116;-76
2021/06/09 10:58:12;;;;;;;4.00;2.80;;;23.10;71.00;;;;;;5082742;28;20028;-76
2021/06/09 11:00:39;;;;;;;4.70;2.55;;;23.10;70.90;;;;;;5066109;28;20036;-77
2021/06/09 11:03:05;;;;;;;4.80;2.78;;;23.10;70.90;;;;;;5082639;28;20032;-76
2021/06/09 11:05:31;;;;;;;4.47;2.40;;;23.10;70.90;;;;;;5066056;28;20043;-76
2021/06/09 11:07:58;;;;;;;5.30;2.90;;;23.10;70.90;;;;;;5065834;28;20077;-76
2021/06/09 11:10:30;;;;;;;3.92;2.85;;;23.10;70.90;;;;;;5066315;28;20024;-76
2021/06/09 11:12:55;;;;;;;4.15;2.85;;;23.10;70.90;;;;;;5084375;28;20107;-76
2021/06/09 11:15:22;;;;;;;6.60;2.72;;;23.10;70.90;;;;;;5066035;28;20420;-76
2021/06/09 11:17:49;;;;;;;4.45;2.70;;;23.10;70.90;;;;;;5065987;28;20300;-76
2021/06/09 11:20:26;;;;;;;4.35;2.90;;;23.10;70.90;;;;;;5082675;28;20107;-76
2021/06/09 11:22:53;;;;;;;3.83;2.75;;;23.10;70.90;;;;;;5083941;28;20028;-76
2021/06/09 11:25:18;;;;;;;3.60;2.55;;;23.10;70.80;;;;;;5082523;28;20204;-76
2021/06/09 11:27:54;;;;;;;5.30;2.58;;;23.10;70.80;;;;;;5078007;28;20012;-80
2021/06/09 11:30:26;;;;;;;3.92;2.83;;;23.10;70.70;;;;;;5063331;28;20054;-76
2021/06/09 11:32:56;;;;;;;4.00;2.60;;;23.10;70.70;;;;;;5065706;28;20036;-76
2021/06/09 11:35:48;;;;;;;3.80;2.72;;;23.10;70.80;;;;;;5065318;28;20017;-76
2021/06/09 11:38:13;;;;;;;4.50;3.00;;;23.10;70.70;;;;;;5065800;28;20483;-77
2021/06/09 11:41:05;;;;;;;4.05;2.95;;;23.10;70.70;;;;;;5064008;28;20020;-76
2021/06/09 11:46:12;;;;;;;3.65;2.45;;;23.10;70.20;;;;;;5120515;27;20375;-87
2021/06/09 11:48:39;;;;;;;3.70;2.67;;;23.10;70.60;;;;;;5104948;28;20480;-88
2021/06/09 11:51:17;;;;;;;3.83;2.85;;;23.10;70.60;;;;;;5101517;28;20448;-85
2021/06/09 11:53:47;;;;;;;3.63;2.38;;;23.10;70.60;;;;;;5102418;28;20024;-80
2021/06/09 11:56:20;;;;;;;3.75;2.65;;;23.10;70.60;;;;;;5101904;28;20095;-76
2021/06/09 11:58:51;;;;;;;3.58;2.45;;;23.10;70.60;;;;;;5084483;28;20024;-76
2021/06/09 12:02:07;;;;;;;3.50;2.35;;;23.10;70.50;;;;;;5086163;28;20016;-84
2021/06/09 12:04:39;;;;;;;3.90;2.67;;;23.10;70.50;;;;;;5104486;28;20036;-76
2021/06/09 12:07:06;;;;;;;6.65;2.60;;;23.10;70.60;;;;;;5117110;27;20067;-76
2021/06/09 12:09:42;;;;;;;4.18;2.35;;;23.10;70.60;;;;;;5093963;28;20030;-76
2021/06/09 12:12:16;;;;;;;5.45;3.20;;;23.10;70.70;;;;;;5093803;28;20028;-76
2021/06/09 12:14:46;;;;;;;5.00;3.13;;;23.10;70.50;;;;;;5088489;28;20028;-76
2021/06/09 12:17:11;;;;;;;5.20;3.55;;;23.20;70.60;;;;;;5087422;28;20043;-76
2021/06/09 12:20:11;;;;;;;5.85;3.42;;;23.20;70.50;;;;;;5096723;28;20027;-83
2021/06/09 12:25:19;;;;;;;4.85;3.88;;;23.10;70.00;;;;;;5099788;27;20406;-75
2021/06/09 12:28:04;;;;;;;6.70;4.43;;;23.10;70.50;;;;;;5082452;28;20028;-80
2021/06/09 12:30:33;;;;;;;6.03;3.90;;;23.20;70.40;;;;;;5080912;28;20025;-76
2021/06/09 12:32:59;;;;;;;6.30;3.72;;;23.20;70.40;;;;;;5083066;28;20489;-75
2021/06/09 12:35:25;;;;;;;6.75;4.18;;;23.20;70.30;;;;;;5085575;28;20036;-75
2021/06/09 12:37:53;;;;;;;8.25;4.60;;;23.20;70.20;;;;;;5081926;28;20016;-77
2021/06/09 12:40:54;;;;;;;6.03;4.57;;;23.20;70.20;;;;;;5081821;28;20031;-74
2021/06/09 12:43:21;;;;;;;6.40;5.07;;;23.20;70.20;;;;;;5067424;28;20556;-79
2021/06/09 12:45:47;;;;;;;7.38;5.60;;;23.20;70.10;;;;;;5078937;28;20039;-77
2021/06/09 12:48:16;;;;;;;5.95;5.13;;;23.20;70.00;;;;;;5078658;28;20025;-76
2021/06/09 12:50:49;;;;;;;6.15;4.70;;;23.20;70.00;;;;;;5079714;28;20673;-74
2021/06/09 12:53:15;;;;;;;7.10;5.20;;;23.20;70.00;;;;;;5079293;28;20122;-73
2021/06/09 12:55:51;;;;;;;6.80;4.85;;;23.30;70.00;;;;;;5077089;28;20016;-74
2021/06/09 12:58:21;;;;;;;8.05;5.03;;;23.30;70.00;;;;;;5077978;28;20044;-76
2021/06/09 13:00:53;;;;;;;6.75;5.10;;;23.20;70.00;;;;;;5078226;28;20079;-74
2021/06/09 13:03:27;;;;;;;7.72;5.13;;;23.20;69.90;;;;;;5078033;28;20055;-73
2021/06/09 13:05:59;;;;;;;9.70;4.90;;;23.20;70.00;;;;;;5078150;28;20059;-74
2021/06/09 13:08:45;;;;;;;8.27;5.57;;;23.30;70.00;;;;;;5078682;28;20012;-73
2021/06/09 13:11:26;;;;;;;8.63;5.25;;;23.30;69.80;;;;;;5075208;28;20074;-81
2021/06/09 13:13:57;;;;;;;8.05;5.10;;;23.30;69.70;;;;;;5075733;28;20650;-74
2021/06/09 13:16:30;;;;;;;7.32;5.43;;;23.30;69.70;;;;;;5078590;28;20021;-73
2021/06/09 13:19:02;;;;;;;7.80;4.93;;;23.20;69.60;;;;;;5077709;28;20031;-74
2021/06/09 13:21:44;;;;;;;11.23;5.13;;;23.20;69.60;;;;;;5058004;28;20035;-74
2021/06/09 13:24:34;;;;;;;6.55;4.72;;;23.20;69.60;;;;;;5058759;28;20060;-74
2021/06/09 13:27:16;;;;;;;9.05;5.10;;;23.20;69.60;;;;;;5076902;28;20032;-74
2021/06/09 13:29:49;;;;;;;8.45;4.85;;;23.20;69.50;;;;;;5078918;28;20020;-76
2021/06/09 13:32:25;;;;;;;7.35;4.47;;;23.20;69.40;;;;;;5058861;28;20028;-75
2021/06/09 13:34:55;;;;;;;6.40;5.00;;;23.20;69.50;;;;;;5074587;28;20021;-74
2021/06/09 13:37:31;;;;;;;6.43;4.53;;;23.20;69.50;;;;;;5064660;28;20471;-77
2021/06/09 13:39:58;;;;;;;6.80;4.45;;;23.20;69.50;;;;;;5064046;28;20609;-75
2021/06/09 13:42:33;;;;;;;14.25;5.15;;;23.20;69.50;;;;;;5065682;28;20112;-73
2021/06/09 13:46:01;;;;;;;8.75;5.10;;;23.30;69.40;;;;;;5102191;27;20998;-74
2021/06/09 13:48:29;;;;;;;8.95;4.95;;;23.30;69.80;;;;;;5079473;28;20020;-81
2021/06/09 13:51:01;;;;;;;10.65;4.88;;;23.30;69.70;;;;;;5062764;28;20021;-78
2021/06/09 13:53:27;;;;;;;10.38;5.25;;;23.30;69.70;;;;;;5078793;28;20032;-78
2021/06/09 13:55:52;;;;;;;6.07;4.47;;;23.30;69.90;;;;;;5061825;28;20020;-77
2021/06/09 13:58:25;;;;;;;12.35;4.88;;;23.30;69.80;;;;;;5079111;28;20022;-77
2021/06/09 14:00:55;;;;;;;6.75;4.50;;;23.30;69.80;;;;;;5052877;28;20029;-77
2021/06/09 14:03:31;;;;;;;11.38;5.30;;;23.30;69.70;;;;;;5056894;28;20021;-78
2021/06/09 14:05:56;;;;;;;10.68;4.70;;;23.30;69.60;;;;;;5057941;28;20271;-79
2021/06/09 14:08:22;;;;;;;6.53;4.80;;;23.30;69.50;;;;;;5060383;28;20024;-78
2021/06/09 14:10:50;;;;;;;8.35;5.00;;;23.30;69.60;;;;;;5037107;28;20032;-77
2021/06/09 14:13:23;;;;;;;8.35;4.53;;;23.30;69.60;;;;;;5079111;28;20078;-80
2021/06/09 14:15:55;;;;;;;6.67;4.97;;;23.30;69.70;;;;;;5079132;28;20475;-80
2021/06/09 14:18:22;;;;;;;8.70;5.18;;;23.30;69.70;;;;;;5077407;28;20028;-77
2021/06/09 14:20:49;;;;;;;6.47;4.72;;;23.30;69.70;;;;;;5077533;28;20107;-78
2021/06/09 14:23:23;;;;;;;8.35;5.00;;;23.40;69.70;;;;;;5060823;28;20146;-82
2021/06/09 14:25:49;;;;;;;9.80;4.90;;;23.30;69.60;;;;;;5062101;28;20032;-77
2021/06/09 14:30:10;;;;;;;6.85;4.63;;;23.30;69.40;;;;;;5106521;27;20384;-77
2021/06/09 14:32:54;;;;;;;9.38;4.60;;;23.30;69.80;;;;;;5075179;28;20032;-77
2021/06/09 14:35:20;;;;;;;8.43;4.57;;;23.30;69.80;;;;;;5058623;28;20016;-81
2021/06/09 14:37:45;;;;;;;5.75;4.32;;;23.30;69.90;;;;;;5058592;28;20353;-80
2021/06/09 14:40:14;;;;;;;8.25;4.50;;;23.30;69.80;;;;;;5060636;28;20028;-77
2021/06/09 14:42:40;;;;;;;9.55;5.35;;;23.30;69.90;;;;;;5079111;28;20015;-78
2021/06/09 14:45:27;;;;;;;9.60;4.95;;;23.30;70.00;;;;;;5079035;28;20024;-77
2021/06/09 14:51:01;;;;;;;7.53;4.72;;;23.30;69.90;;;;;;5079158;28;20040;-78
2021/06/09 14:53:27;;;;;;;7.25;4.63;;;23.30;69.90;;;;;;5062706;28;20020;-78
2021/06/09 14:55:53;;;;;;;8.88;5.13;;;23.40;69.90;;;;;;5057795;28;20101;-77
2021/06/09 15:00:02;;;;;;;8.88;4.93;;;23.30;69.40;;;;;;5094063;27;20472;-78
2021/06/09 15:02:29;;;;;;;7.00;4.43;;;23.30;69.90;;;;;;5064134;28;20062;-79
2021/06/09 15:04:55;;;;;;;8.10;5.05;;;23.30;69.90;;;;;;5054438;28;20241;-78
2021/06/09 15:07:21;;;;;;;8.88;4.50;;;23.40;70.00;;;;;;5064505;28;20765;-77
2021/06/09 15:09:47;;;;;;;7.00;4.60;;;23.30;70.00;;;;;;5062771;28;20071;-77
2021/06/09 15:12:13;;;;;;;7.60;4.70;;;23.40;70.10;;;;;;5063730;28;20027;-79
2021/06/09 15:14:38;;;;;;;7.28;4.65;;;23.40;70.00;;;;;;5055408;28;20035;-79
2021/06/09 15:17:04;;;;;;;7.38;4.82;;;23.40;70.10;;;;;;5052482;28;20024;-78
2021/06/09 15:19:30;;;;;;;8.48;5.22;;;23.40;70.10;;;;;;5055548;28;20044;-79
2021/06/09 15:21:56;;;;;;;8.55;4.70;;;23.30;70.10;;;;;;5038796;28;20577;-79
2021/06/09 15:24:22;;;;;;;7.45;4.80;;;23.40;70.10;;;;;;5042779;28;20033;-81
2021/06/09 15:26:47;;;;;;;11.93;5.30;;;23.40;70.30;;;;;;5055235;28;20382;-78
2021/06/09 15:29:13;;;;;;;7.68;4.88;;;23.40;70.20;;;;;;5050259;28;20047;-81
2021/06/09 15:31:39;;;;;;;8.48;5.18;;;23.40;70.20;;;;;;5053615;28;20029;-78
2021/06/09 15:34:05;;;;;;;7.35;4.38;;;23.40;70.20;;;;;;5056349;28;20071;-79
2021/06/09 15:36:34;;;;;;;8.23;4.50;;;23.30;70.10;;;;;;5031834;28;20487;-78
2021/06/09 15:39:07;;;;;;;7.20;4.63;;;23.30;70.20;;;;;;5030778;28;20044;-81
2021/06/09 15:41:32;;;;;;;7.50;4.90;;;23.30;70.20;;;;;;5055498;28;20028;-81
2021/06/09 15:43:58;;;;;;;7.05;4.40;;;23.40;70.30;;;;;;5073588;28;20024;-79
2021/06/09 15:46:24;;;;;;;7.47;4.32;;;23.40;70.20;;;;;;5073194;28;20070;-76
2021/06/09 15:49:37;;;;;;;6.50;4.63;;;23.40;69.70;;;;;;5110897;27;20387;-77
2021/06/09 15:52:03;;;;;;;9.68;5.47;;;23.40;70.20;;;;;;5093873;28;20043;-78
2021/06/09 15:54:29;;;;;;;7.32;4.05;;;23.40;70.30;;;;;;5093930;28;20032;-77
2021/06/09 15:56:55;;;;;;;8.88;4.68;;;23.40;70.30;;;;;;5086575;28;20024;-77
2021/06/09 15:59:21;;;;;;;11.02;5.05;;;23.30;70.20;;;;;;5080537;28;20035;-77
2021/06/09 16:01:47;;;;;;;6.82;4.40;;;23.30;70.20;;;;;;5057065;28;20047;-77
2021/06/09 16:04:12;;;;;;;8.20;4.35;;;23.30;70.20;;;;;;5068495;28;20016;-78
2021/06/09 16:06:39;;;;;;;8.18;4.30;;;23.30;70.20;;;;;;5076685;28;20035;-77
2021/06/09 16:09:05;;;;;;;7.07;3.90;;;23.30;70.20;;;;;;5075657;28;20040;-77
2021/06/09 16:11:32;;;;;;;6.43;3.97;;;23.30;70.30;;;;;;5072626;28;20034;-76
2021/06/09 16:13:57;;;;;;;7.22;4.00;;;23.30;70.20;;;;;;5054241;28;20024;-76
2021/06/09 16:16:24;;;;;;;7.25;3.72;;;23.30;70.30;;;;;;5050176;28;20034;-76
2021/06/09 16:18:50;;;;;;;6.63;4.63;;;23.30;70.30;;;;;;5093465;28;20035;-78
2021/06/09 16:21:18;;;;;;;6.82;4.35;;;23.30;70.30;;;;;;5073972;28;20077;-76
2021/06/09 16:23:46;;;;;;;10.55;4.30;;;23.30;70.20;;;;;;5095170;28;20418;-77
2021/06/09 16:26:14;;;;;;;5.88;3.72;;;23.30;70.30;;;;;;5060261;28;20027;-78
2021/06/09 16:28:41;;;;;;;7.22;3.65;;;23.30;70.30;;;;;;5076761;28;20040;-76
2021/06/09 16:31:12;;;;;;;8.70;4.35;;;23.30;70.40;;;;;;5093305;28;20103;-76
2021/06/09 16:33:38;;;;;;;6.53;3.80;;;23.30;70.40;;;;;;5094703;28;20103;-78
2021/06/09 16:36:53;;;;;;;7.43;3.72;;;23.30;70.00;;;;;;5110763;27;20415;-77
2021/06/09 16:39:24;;;;;;;7.45;3.83;;;23.30;71.00;;;;;;5095342;28;20394;-79
2021/06/09 16:41:51;;;;;;;6.05;4.07;;;23.30;70.40;;;;;;5091622;28;20089;-77
2021/06/09 16:44:19;;;;;;;8.40;3.63;;;23.30;70.40;;;;;;5077043;28;20263;-77
2021/06/09 16:46:46;;;;;;;8.18;4.10;;;23.30;70.40;;;;;;5074472;28;20046;-77
2021/06/09 16:49:17;;;;;;;6.28;4.03;;;23.30;70.40;;;;;;5075854;28;20090;-82
2021/06/09 16:51:46;;;;;;;8.48;4.00;;;23.30;70.40;;;;;;5093221;28;20024;-77
2021/06/09 16:54:38;;;;;;;7.38;4.40;;;23.30;70.40;;;;;;5093623;28;20028;-82
2021/06/09 16:59:47;;;;;;;7.68;4.30;;;23.30;70.40;;;;;;5093583;28;20043;-78
2021/06/09 17:02:15;;;;;;;7.20;4.38;;;23.30;70.40;;;;;;5091900;28;20121;-77
2021/06/09 17:04:41;;;;;;;9.50;4.18;;;23.30;70.60;;;;;;5093577;28;20027;-77
2021/06/09 17:07:34;;;;;;;6.97;4.50;;;23.30;70.00;;;;;;5111260;27;20873;-79
2021/06/09 17:11:24;;;;;;;8.02;4.95;;;23.30;70.10;;;;;;5111016;27;20745;-78
2021/06/09 17:13:49;;;;;;;8.25;4.32;;;23.30;70.70;;;;;;5077381;28;20027;-78
2021/06/09 17:16:15;;;;;;;11.23;4.97;;;23.30;70.90;;;;;;5094213;28;20055;-78
2021/06/09 17:18:41;;;;;;;5.45;3.55;;;23.30;70.90;;;;;;5060401;28;20494;-76
2021/06/09 17:21:06;;;;;;;8.50;4.47;;;23.30;71.10;;;;;;5070776;28;20055;-79
2021/06/09 17:23:32;;;;;;;9.02;3.83;;;23.30;71.00;;;;;;5073521;28;20028;-81
2021/06/09 17:25:58;;;;;;;8.75;4.25;;;23.30;70.80;;;;;;5075481;28;20097;-82
2021/06/09 17:28:26;;;;;;;9.52;4.20;;;23.30;70.80;;;;;;5096546;28;20024;-78